sensor_id;sensor_type;location;lat;lon;timestamp;temperature;humidity
69503;SHT31;56704;54.242;12.442;2023-04-25T00:02:15;8.12;93.86
69503;SHT31;56704;54.242;12.442;2023-04-25T00:04:44;8.15;93.67
69503;SHT31;56704;54.242;12.442;2023-04-25T00:07:11;8.13;93.46
69503;SHT31;56704;54.242;12.442;2023-04-25T00:09:38;8.18;93.56
69503;SHT31;56704;54.242;12.442;2023-04-25T00:12:05;8.19;93.55
69503;SHT31;56704;54.242;12.442;2023-04-25T00:14:31;8.24;93.58
69503;SHT31;56704;54.242;12.442;2023-04-25T00:17:00;8.24;93.53
69503;SHT31;56704;54.242;12.442;2023-04-25T00:19:27;8.22;93.47
69503;SHT31;56704;54.242;12.442;2023-04-25T00:21:55;8.25;93.45
69503;SHT31;56704;54.242;12.442;2023-04-25T00:24:22;8.26;93.40
69503;SHT31;56704;54.242;12.442;2023-04-25T00:26:49;8.25;93.40
69503;SHT31;56704;54.242;12.442;2023-04-25T00:29:15;8.28;93.46
69503;SHT31;56704;54.242;12.442;2023-04-25T00:31:42;8.26;93.31
69503;SHT31;56704;54.242;12.442;2023-04-25T00:34:08;8.22;93.15
69503;SHT31;56704;54.242;12.442;2023-04-25T00:36:35;8.26;92.97
69503;SHT31;56704;54.242;12.442;2023-04-25T00:39:03;8.25;93.15
69503;SHT31;56704;54.242;12.442;2023-04-25T00:41:32;8.28;92.72
69503;SHT31;56704;54.242;12.442;2023-04-25T00:43:59;8.28;93.02
69503;SHT31;56704;54.242;12.442;2023-04-25T00:46:26;8.28;92.88
69503;SHT31;56704;54.242;12.442;2023-04-25T00:48:53;8.32;92.82
69503;SHT31;56704;54.242;12.442;2023-04-25T00:51:20;8.33;92.77
69503;SHT31;56704;54.242;12.442;2023-04-25T00:53:48;8.32;92.63
69503;SHT31;56704;54.242;12.442;2023-04-25T00:56:17;8.32;92.76
69503;SHT31;56704;54.242;12.442;2023-04-25T00:58:44;8.33;92.68
69503;SHT31;56704;54.242;12.442;2023-04-25T01:01:11;8.35;92.68
69503;SHT31;56704;54.242;12.442;2023-04-25T01:03:39;8.32;92.54
69503;SHT31;56704;54.242;12.442;2023-04-25T01:06:07;8.35;92.15
69503;SHT31;56704;54.242;12.442;2023-04-25T01:08:35;8.35;92.43
69503;SHT31;56704;54.242;12.442;2023-04-25T01:11:02;8.36;92.22
69503;SHT31;56704;54.242;12.442;2023-04-25T01:13:30;8.32;91.95
69503;SHT31;56704;54.242;12.442;2023-04-25T01:15:57;8.26;92.01
69503;SHT31;56704;54.242;12.442;2023-04-25T01:18:23;8.28;92.18
69503;SHT31;56704;54.242;12.442;2023-04-25T01:20:51;8.33;92.24
69503;SHT31;56704;54.242;12.442;2023-04-25T01:23:20;8.35;92.14
69503;SHT31;56704;54.242;12.442;2023-04-25T01:25:48;8.19;92.45
69503;SHT31;56704;54.242;12.442;2023-04-25T01:28:15;8.13;91.96
69503;SHT31;56704;54.242;12.442;2023-04-25T01:30:42;8.21;92.08
69503;SHT31;56704;54.242;12.442;2023-04-25T01:33:10;7.99;92.95
69503;SHT31;56704;54.242;12.442;2023-04-25T01:35:37;7.85;93.14
69503;SHT31;56704;54.242;12.442;2023-04-25T01:38:04;7.69;94.08
69503;SHT31;56704;54.242;12.442;2023-04-25T01:40:33;8.16;92.61
69503;SHT31;56704;54.242;12.442;2023-04-25T01:43:00;8.25;92.14
69503;SHT31;56704;54.242;12.442;2023-04-25T01:45:27;8.25;92.21
69503;SHT31;56704;54.242;12.442;2023-04-25T01:47:54;8.25;91.80
69503;SHT31;56704;54.242;12.442;2023-04-25T01:50:24;8.26;91.69
69503;SHT31;56704;54.242;12.442;2023-04-25T01:52:51;8.21;91.70
69503;SHT31;56704;54.242;12.442;2023-04-25T01:55:18;8.30;91.85
69503;SHT31;56704;54.242;12.442;2023-04-25T01:57:46;8.30;91.68
69503;SHT31;56704;54.242;12.442;2023-04-25T02:00:13;8.21;91.87
69503;SHT31;56704;54.242;12.442;2023-04-25T02:02:39;8.24;92.06
69503;SHT31;56704;54.242;12.442;2023-04-25T02:05:07;8.19;91.29
69503;SHT31;56704;54.242;12.442;2023-04-25T02:07:33;8.25;91.67
69503;SHT31;56704;54.242;12.442;2023-04-25T02:10:00;8.16;91.53
69503;SHT31;56704;54.242;12.442;2023-04-25T02:12:27;8.16;91.10
69503;SHT31;56704;54.242;12.442;2023-04-25T02:14:55;8.09;91.87
69503;SHT31;56704;54.242;12.442;2023-04-25T02:17:21;8.21;90.70
69503;SHT31;56704;54.242;12.442;2023-04-25T02:19:48;8.16;91.18
69503;SHT31;56704;54.242;12.442;2023-04-25T02:22:15;8.15;91.01
69503;SHT31;56704;54.242;12.442;2023-04-25T02:24:42;8.02;91.25
69503;SHT31;56704;54.242;12.442;2023-04-25T02:27:08;7.98;90.99
69503;SHT31;56704;54.242;12.442;2023-04-25T02:29:35;7.47;92.33
69503;SHT31;56704;54.242;12.442;2023-04-25T02:32:03;7.95;90.05
69503;SHT31;56704;54.242;12.442;2023-04-25T02:34:30;7.97;89.70
69503;SHT31;56704;54.242;12.442;2023-04-25T02:36:57;7.92;89.69
69503;SHT31;56704;54.242;12.442;2023-04-25T02:39:23;7.87;88.83
69503;SHT31;56704;54.242;12.442;2023-04-25T02:41:51;7.80;89.23
69503;SHT31;56704;54.242;12.442;2023-04-25T02:44:18;7.57;89.55
69503;SHT31;56704;54.242;12.442;2023-04-25T02:46:46;7.33;91.05
69503;SHT31;56704;54.242;12.442;2023-04-25T02:49:14;7.08;92.01
69503;SHT31;56704;54.242;12.442;2023-04-25T02:51:41;7.49;90.03
69503;SHT31;56704;54.242;12.442;2023-04-25T02:54:07;7.59;89.39
69503;SHT31;56704;54.242;12.442;2023-04-25T02:56:34;7.47;90.33
69503;SHT31;56704;54.242;12.442;2023-04-25T02:59:00;7.49;89.25
69503;SHT31;56704;54.242;12.442;2023-04-25T03:01:27;7.43;88.23
69503;SHT31;56704;54.242;12.442;2023-04-25T03:03:53;7.34;88.34
69503;SHT31;56704;54.242;12.442;2023-04-25T03:06:21;7.27;88.14
69503;SHT31;56704;54.242;12.442;2023-04-25T03:08:48;6.71;89.09
69503;SHT31;56704;54.242;12.442;2023-04-25T03:11:14;7.22;88.76
69503;SHT31;56704;54.242;12.442;2023-04-25T03:13:41;7.18;87.09
69503;SHT31;56704;54.242;12.442;2023-04-25T03:16:07;7.23;87.78
69503;SHT31;56704;54.242;12.442;2023-04-25T03:18:34;6.71;89.28
69503;SHT31;56704;54.242;12.442;2023-04-25T03:21:01;6.52;90.54
69503;SHT31;56704;54.242;12.442;2023-04-25T03:23:29;6.61;90.24
69503;SHT31;56704;54.242;12.442;2023-04-25T03:25:55;7.06;88.71
69503;SHT31;56704;54.242;12.442;2023-04-25T03:28:22;7.20;88.16
69503;SHT31;56704;54.242;12.442;2023-04-25T03:30:48;7.20;87.67
69503;SHT31;56704;54.242;12.442;2023-04-25T03:33:15;7.22;87.06
69503;SHT31;56704;54.242;12.442;2023-04-25T03:35:41;7.22;87.57
69503;SHT31;56704;54.242;12.442;2023-04-25T03:38:08;7.19;88.20
69503;SHT31;56704;54.242;12.442;2023-04-25T03:40:36;7.13;88.09
69503;SHT31;56704;54.242;12.442;2023-04-25T03:43:03;7.06;88.38
69503;SHT31;56704;54.242;12.442;2023-04-25T03:45:30;6.77;89.08
69503;SHT31;56704;54.242;12.442;2023-04-25T03:47:56;7.06;88.31
69503;SHT31;56704;54.242;12.442;2023-04-25T03:50:23;6.63;88.93
69503;SHT31;56704;54.242;12.442;2023-04-25T03:52:50;6.48;89.96
69503;SHT31;56704;54.242;12.442;2023-04-25T03:55:16;6.44;90.81
69503;SHT31;56704;54.242;12.442;2023-04-25T03:57:44;6.34;90.28
69503;SHT31;56704;54.242;12.442;2023-04-25T04:00:12;6.38;90.26
69503;SHT31;56704;54.242;12.442;2023-04-25T04:02:39;6.44;90.42
69503;SHT31;56704;54.242;12.442;2023-04-25T04:05:06;6.47;90.70
69503;SHT31;56704;54.242;12.442;2023-04-25T04:07:32;6.52;91.46
69503;SHT31;56704;54.242;12.442;2023-04-25T04:10:05;6.57;89.68
69503;SHT31;56704;54.242;12.442;2023-04-25T04:12:32;6.55;90.56
69503;SHT31;56704;54.242;12.442;2023-04-25T04:15:01;6.64;90.38
69503;SHT31;56704;54.242;12.442;2023-04-25T04:17:28;6.58;90.21
69503;SHT31;56704;54.242;12.442;2023-04-25T04:19:55;6.74;87.61
69503;SHT31;56704;54.242;12.442;2023-04-25T04:22:22;6.69;89.11
69503;SHT31;56704;54.242;12.442;2023-04-25T04:24:51;7.06;86.87
69503;SHT31;56704;54.242;12.442;2023-04-25T04:27:19;7.24;85.49
69503;SHT31;56704;54.242;12.442;2023-04-25T04:29:46;7.34;85.50
69503;SHT31;56704;54.242;12.442;2023-04-25T04:32:15;7.30;85.98
69503;SHT31;56704;54.242;12.442;2023-04-25T04:34:42;7.31;85.73
69503;SHT31;56704;54.242;12.442;2023-04-25T04:37:10;7.31;85.24
69503;SHT31;56704;54.242;12.442;2023-04-25T04:39:38;7.20;84.59
69503;SHT31;56704;54.242;12.442;2023-04-25T04:42:05;7.24;85.89
69503;SHT31;56704;54.242;12.442;2023-04-25T04:44:31;7.23;86.01
69503;SHT31;56704;54.242;12.442;2023-04-25T04:46:59;7.16;83.94
69503;SHT31;56704;54.242;12.442;2023-04-25T04:49:27;7.15;84.60
69503;SHT31;56704;54.242;12.442;2023-04-25T04:51:54;7.15;85.26
69503;SHT31;56704;54.242;12.442;2023-04-25T04:54:20;7.13;84.70
69503;SHT31;56704;54.242;12.442;2023-04-25T04:56:47;7.31;85.06
69503;SHT31;56704;54.242;12.442;2023-04-25T04:59:14;7.31;85.12
69503;SHT31;56704;54.242;12.442;2023-04-25T05:01:40;7.27;84.26
69503;SHT31;56704;54.242;12.442;2023-04-25T05:04:07;7.20;84.86
69503;SHT31;56704;54.242;12.442;2023-04-25T05:06:35;7.10;82.37
69503;SHT31;56704;54.242;12.442;2023-04-25T05:09:01;7.02;82.19
69503;SHT31;56704;54.242;12.442;2023-04-25T05:11:28;6.92;83.29
69503;SHT31;56704;54.242;12.442;2023-04-25T05:13:55;6.34;84.75
69503;SHT31;56704;54.242;12.442;2023-04-25T05:16:22;6.34;85.68
69503;SHT31;56704;54.242;12.442;2023-04-25T05:18:48;6.27;84.98
69503;SHT31;56704;54.242;12.442;2023-04-25T05:21:15;6.26;83.56
69503;SHT31;56704;54.242;12.442;2023-04-25T05:23:43;6.89;83.52
69503;SHT31;56704;54.242;12.442;2023-04-25T05:26:09;6.98;82.26
69503;SHT31;56704;54.242;12.442;2023-04-25T05:28:39;7.05;82.47
69503;SHT31;56704;54.242;12.442;2023-04-25T05:31:05;7.20;83.03
69503;SHT31;56704;54.242;12.442;2023-04-25T05:33:32;7.19;81.80
69503;SHT31;56704;54.242;12.442;2023-04-25T05:35:58;7.12;82.24
69503;SHT31;56704;54.242;12.442;2023-04-25T05:38:25;6.96;81.97
69503;SHT31;56704;54.242;12.442;2023-04-25T05:40:53;7.03;81.72
69503;SHT31;56704;54.242;12.442;2023-04-25T05:43:20;7.03;82.32
69503;SHT31;56704;54.242;12.442;2023-04-25T05:45:46;7.10;81.47
69503;SHT31;56704;54.242;12.442;2023-04-25T05:48:13;7.18;81.85
69503;SHT31;56704;54.242;12.442;2023-04-25T05:50:39;7.13;81.80
69503;SHT31;56704;54.242;12.442;2023-04-25T05:53:06;7.29;82.67
69503;SHT31;56704;54.242;12.442;2023-04-25T05:55:32;7.22;81.63
69503;SHT31;56704;54.242;12.442;2023-04-25T05:58:00;7.36;79.96
69503;SHT31;56704;54.242;12.442;2023-04-25T06:00:27;7.51;82.20
69503;SHT31;56704;54.242;12.442;2023-04-25T06:02:54;7.53;81.07
69503;SHT31;56704;54.242;12.442;2023-04-25T06:05:21;7.49;80.18
69503;SHT31;56704;54.242;12.442;2023-04-25T06:07:47;7.56;79.48
69503;SHT31;56704;54.242;12.442;2023-04-25T06:10:14;7.56;81.52
69503;SHT31;56704;54.242;12.442;2023-04-25T06:12:40;7.63;80.99
69503;SHT31;56704;54.242;12.442;2023-04-25T06:15:09;7.59;80.03
69503;SHT31;56704;54.242;12.442;2023-04-25T06:17:36;7.63;79.64
69503;SHT31;56704;54.242;12.442;2023-04-25T06:20:03;7.44;77.70
69503;SHT31;56704;54.242;12.442;2023-04-25T06:22:31;7.59;79.40
69503;SHT31;56704;54.242;12.442;2023-04-25T06:24:57;7.53;78.71
69503;SHT31;56704;54.242;12.442;2023-04-25T06:27:25;7.66;78.51
69503;SHT31;56704;54.242;12.442;2023-04-25T06:29:51;7.60;78.27
69503;SHT31;56704;54.242;12.442;2023-04-25T06:32:19;7.29;78.99
69503;SHT31;56704;54.242;12.442;2023-04-25T06:34:46;7.08;80.29
69503;SHT31;56704;54.242;12.442;2023-04-25T06:37:13;7.18;80.55
69503;SHT31;56704;54.242;12.442;2023-04-25T06:39:39;7.12;80.58
69503;SHT31;56704;54.242;12.442;2023-04-25T06:42:06;7.20;81.33
69503;SHT31;56704;54.242;12.442;2023-04-25T06:44:32;7.24;81.20
69503;SHT31;56704;54.242;12.442;2023-04-25T06:46:59;7.36;79.56
69503;SHT31;56704;54.242;12.442;2023-04-25T06:49:27;7.43;79.44
69503;SHT31;56704;54.242;12.442;2023-04-25T06:51:53;7.36;75.46
69503;SHT31;56704;54.242;12.442;2023-04-25T06:54:20;7.26;79.20
69503;SHT31;56704;54.242;12.442;2023-04-25T06:56:47;7.22;76.12
69503;SHT31;56704;54.242;12.442;2023-04-25T06:59:13;7.26;75.06
69503;SHT31;56704;54.242;12.442;2023-04-25T07:01:40;7.71;77.36
69503;SHT31;56704;54.242;12.442;2023-04-25T07:04:06;7.78;75.36
69503;SHT31;56704;54.242;12.442;2023-04-25T07:06:34;7.82;73.35
69503;SHT31;56704;54.242;12.442;2023-04-25T07:09:03;7.71;71.90
69503;SHT31;56704;54.242;12.442;2023-04-25T07:11:29;7.66;71.04
69503;SHT31;56704;54.242;12.442;2023-04-25T07:13:56;7.66;71.49
69503;SHT31;56704;54.242;12.442;2023-04-25T07:16:23;7.71;72.08
69503;SHT31;56704;54.242;12.442;2023-04-25T07:18:49;7.78;71.31
69503;SHT31;56704;54.242;12.442;2023-04-25T07:21:16;7.78;72.07
69503;SHT31;56704;54.242;12.442;2023-04-25T07:23:43;7.82;70.35
69503;SHT31;56704;54.242;12.442;2023-04-25T07:26:10;7.91;71.62
69503;SHT31;56704;54.242;12.442;2023-04-25T07:28:37;7.92;72.67
69503;SHT31;56704;54.242;12.442;2023-04-25T07:31:03;7.90;70.29
69503;SHT31;56704;54.242;12.442;2023-04-25T07:33:30;7.91;70.52
69503;SHT31;56704;54.242;12.442;2023-04-25T07:35:57;7.95;71.67
69503;SHT31;56704;54.242;12.442;2023-04-25T07:38:23;7.99;71.01
69503;SHT31;56704;54.242;12.442;2023-04-25T07:40:51;7.87;69.60
69503;SHT31;56704;54.242;12.442;2023-04-25T07:43:18;7.95;69.92
69503;SHT31;56704;54.242;12.442;2023-04-25T07:45:44;7.91;69.96
69503;SHT31;56704;54.242;12.442;2023-04-25T07:48:11;7.98;69.58
69503;SHT31;56704;54.242;12.442;2023-04-25T07:50:38;8.08;69.63
69503;SHT31;56704;54.242;12.442;2023-04-25T07:53:05;8.12;69.35
69503;SHT31;56704;54.242;12.442;2023-04-25T07:55:31;8.36;69.59
69503;SHT31;56704;54.242;12.442;2023-04-25T07:57:59;8.40;68.67
69503;SHT31;56704;54.242;12.442;2023-04-25T08:00:26;8.43;68.02
69503;SHT31;56704;54.242;12.442;2023-04-25T08:02:52;8.50;67.91
69503;SHT31;56704;54.242;12.442;2023-04-25T08:05:19;8.39;67.98
69503;SHT31;56704;54.242;12.442;2023-04-25T08:07:46;8.70;68.97
69503;SHT31;56704;54.242;12.442;2023-04-25T08:10:13;8.80;67.44
69503;SHT31;56704;54.242;12.442;2023-04-25T08:12:40;8.60;65.07
69503;SHT31;56704;54.242;12.442;2023-04-25T08:15:09;8.48;63.77
69503;SHT31;56704;54.242;12.442;2023-04-25T08:17:35;8.52;65.14
69503;SHT31;56704;54.242;12.442;2023-04-25T08:20:02;8.48;63.63
69503;SHT31;56704;54.242;12.442;2023-04-25T08:22:30;8.60;64.16
69503;SHT31;56704;54.242;12.442;2023-04-25T08:24:57;8.70;65.12
69503;SHT31;56704;54.242;12.442;2023-04-25T08:27:24;8.74;64.20
69503;SHT31;56704;54.242;12.442;2023-04-25T08:29:50;8.77;63.71
69503;SHT31;56704;54.242;12.442;2023-04-25T08:32:19;8.71;62.73
69503;SHT31;56704;54.242;12.442;2023-04-25T08:34:46;8.63;63.09
69503;SHT31;56704;54.242;12.442;2023-04-25T08:37:13;8.52;63.45
69503;SHT31;56704;54.242;12.442;2023-04-25T08:39:39;8.70;64.39
69503;SHT31;56704;54.242;12.442;2023-04-25T08:42:07;8.54;62.22
69503;SHT31;56704;54.242;12.442;2023-04-25T08:44:34;8.57;63.67
69503;SHT31;56704;54.242;12.442;2023-04-25T08:47:02;8.50;62.34
69503;SHT31;56704;54.242;12.442;2023-04-25T08:49:31;8.48;63.33
69503;SHT31;56704;54.242;12.442;2023-04-25T08:52:00;8.64;63.09
69503;SHT31;56704;54.242;12.442;2023-04-25T08:54:27;8.84;65.10
69503;SHT31;56704;54.242;12.442;2023-04-25T08:56:56;8.99;62.70
69503;SHT31;56704;54.242;12.442;2023-04-25T08:59:23;8.97;60.87
69503;SHT31;56704;54.242;12.442;2023-04-25T09:01:50;8.99;60.40
69503;SHT31;56704;54.242;12.442;2023-04-25T09:04:17;9.45;63.71
69503;SHT31;56704;54.242;12.442;2023-04-25T09:06:45;9.38;59.03
69503;SHT31;56704;54.242;12.442;2023-04-25T09:09:12;9.30;59.29
69503;SHT31;56704;54.242;12.442;2023-04-25T09:11:39;9.18;59.62
69503;SHT31;56704;54.242;12.442;2023-04-25T09:14:11;9.01;57.84
69503;SHT31;56704;54.242;12.442;2023-04-25T09:16:57;9.01;60.19
69503;SHT31;56704;54.242;12.442;2023-04-25T09:19:25;8.94;59.27
69503;SHT31;56704;54.242;12.442;2023-04-25T09:21:56;9.03;58.42
69503;SHT31;56704;54.242;12.442;2023-04-25T09:24:34;9.20;57.66
69503;SHT31;56704;54.242;12.442;2023-04-25T09:27:03;9.35;56.80
69503;SHT31;56704;54.242;12.442;2023-04-25T09:29:31;9.52;56.67
69503;SHT31;56704;54.242;12.442;2023-04-25T09:32:15;9.93;57.53
69503;SHT31;56704;54.242;12.442;2023-04-25T09:34:44;10.13;56.26
69503;SHT31;56704;54.242;12.442;2023-04-25T09:37:17;10.11;54.64
69503;SHT31;56704;54.242;12.442;2023-04-25T09:39:45;10.10;54.50
69503;SHT31;56704;54.242;12.442;2023-04-25T09:42:11;10.06;55.79
69503;SHT31;56704;54.242;12.442;2023-04-25T09:44:42;10.18;56.03
69503;SHT31;56704;54.242;12.442;2023-04-25T09:47:09;10.14;56.06
69503;SHT31;56704;54.242;12.442;2023-04-25T09:49:39;10.03;54.46
69503;SHT31;56704;54.242;12.442;2023-04-25T09:52:05;10.06;55.74
69503;SHT31;56704;54.242;12.442;2023-04-25T09:54:33;10.17;56.50
69503;SHT31;56704;54.242;12.442;2023-04-25T09:57:04;10.13;55.22
69503;SHT31;56704;54.242;12.442;2023-04-25T09:59:34;10.22;55.78
69503;SHT31;56704;54.242;12.442;2023-04-25T10:02:03;10.10;55.25
69503;SHT31;56704;54.242;12.442;2023-04-25T10:04:34;9.85;55.62
69503;SHT31;56704;54.242;12.442;2023-04-25T10:07:01;9.86;56.66
69503;SHT31;56704;54.242;12.442;2023-04-25T10:09:32;9.75;56.13
69503;SHT31;56704;54.242;12.442;2023-04-25T10:12:00;9.72;57.48
69503;SHT31;56704;54.242;12.442;2023-04-25T10:14:29;9.69;58.66
69503;SHT31;56704;54.242;12.442;2023-04-25T10:16:57;9.53;60.06
69503;SHT31;56704;54.242;12.442;2023-04-25T10:19:24;9.55;61.40
69503;SHT31;56704;54.242;12.442;2023-04-25T10:21:55;9.48;60.66
69503;SHT31;56704;54.242;12.442;2023-04-25T10:24:23;9.34;61.94
69503;SHT31;56704;54.242;12.442;2023-04-25T10:26:51;9.34;60.14
69503;SHT31;56704;54.242;12.442;2023-04-25T10:29:26;9.39;60.82
69503;SHT31;56704;54.242;12.442;2023-04-25T10:31:52;9.53;60.68
69503;SHT31;56704;54.242;12.442;2023-04-25T10:34:19;9.66;59.48
69503;SHT31;56704;54.242;12.442;2023-04-25T10:36:50;9.72;59.05
69503;SHT31;56704;54.242;12.442;2023-04-25T10:39:23;10.06;58.23
69503;SHT31;56704;54.242;12.442;2023-04-25T10:41:55;10.48;54.61
69503;SHT31;56704;54.242;12.442;2023-04-25T10:44:22;10.44;55.54
69503;SHT31;56704;54.242;12.442;2023-04-25T10:46:49;10.69;56.01
69503;SHT31;56704;54.242;12.442;2023-04-25T10:49:30;10.40;53.50
69503;SHT31;56704;54.242;12.442;2023-04-25T10:52:25;10.27;54.20
69503;SHT31;56704;54.242;12.442;2023-04-25T10:54:54;10.27;54.06
69503;SHT31;56704;54.242;12.442;2023-04-25T10:57:28;9.99;53.12
69503;SHT31;56704;54.242;12.442;2023-04-25T10:59:58;9.99;54.48
69503;SHT31;56704;54.242;12.442;2023-04-25T11:02:28;9.89;54.02
69503;SHT31;56704;54.242;12.442;2023-04-25T11:04:54;9.79;54.66
69503;SHT31;56704;54.242;12.442;2023-04-25T11:07:26;9.87;56.15
69503;SHT31;56704;54.242;12.442;2023-04-25T11:09:55;10.01;55.63
69503;SHT31;56704;54.242;12.442;2023-04-25T11:12:24;9.97;55.92
69503;SHT31;56704;54.242;12.442;2023-04-25T11:14:58;10.04;55.94
69503;SHT31;56704;54.242;12.442;2023-04-25T11:17:28;10.14;56.32
69503;SHT31;56704;54.242;12.442;2023-04-25T11:19:54;10.18;55.73
69503;SHT31;56704;54.242;12.442;2023-04-25T11:22:22;10.45;57.37
69503;SHT31;56704;54.242;12.442;2023-04-25T11:24:49;10.36;54.58
69503;SHT31;56704;54.242;12.442;2023-04-25T11:27:15;10.13;54.87
69503;SHT31;56704;54.242;12.442;2023-04-25T11:29:42;9.86;54.96
69503;SHT31;56704;54.242;12.442;2023-04-25T11:32:09;9.68;57.63
69503;SHT31;56704;54.242;12.442;2023-04-25T11:34:37;9.51;55.74
69503;SHT31;56704;54.242;12.442;2023-04-25T11:37:03;9.43;56.60
69503;SHT31;56704;54.242;12.442;2023-04-25T11:39:31;9.39;57.08
69503;SHT31;56704;54.242;12.442;2023-04-25T11:41:57;9.46;55.31
69503;SHT31;56704;54.242;12.442;2023-04-25T11:44:25;9.76;55.55
69503;SHT31;56704;54.242;12.442;2023-04-25T11:46:52;9.89;54.79
69503;SHT31;56704;54.242;12.442;2023-04-25T11:49:18;10.03;55.68
69503;SHT31;56704;54.242;12.442;2023-04-25T11:51:48;10.27;55.91
69503;SHT31;56704;54.242;12.442;2023-04-25T11:54:15;10.37;52.62
69503;SHT31;56704;54.242;12.442;2023-04-25T11:56:42;10.58;55.46
69503;SHT31;56704;54.242;12.442;2023-04-25T11:59:09;10.92;53.56
69503;SHT31;56704;54.242;12.442;2023-04-25T12:01:37;11.30;52.89
69503;SHT31;56704;54.242;12.442;2023-04-25T12:04:11;11.31;51.78
69503;SHT31;56704;54.242;12.442;2023-04-25T12:06:38;11.36;51.67
69503;SHT31;56704;54.242;12.442;2023-04-25T12:09:08;11.46;50.68
69503;SHT31;56704;54.242;12.442;2023-04-25T12:11:41;11.90;50.07
69503;SHT31;56704;54.242;12.442;2023-04-25T12:14:08;12.22;49.97
69503;SHT31;56704;54.242;12.442;2023-04-25T12:16:41;12.42;47.60
69503;SHT31;56704;54.242;12.442;2023-04-25T12:19:08;11.91;48.33
69503;SHT31;56704;54.242;12.442;2023-04-25T12:21:35;11.54;49.34
69503;SHT31;56704;54.242;12.442;2023-04-25T12:24:14;11.23;50.71
69503;SHT31;56704;54.242;12.442;2023-04-25T12:26:48;11.30;50.48
69503;SHT31;56704;54.242;12.442;2023-04-25T12:29:16;11.50;50.80
69503;SHT31;56704;54.242;12.442;2023-04-25T12:31:43;12.90;47.00
69503;SHT31;56704;54.242;12.442;2023-04-25T12:34:10;12.99;45.75
69503;SHT31;56704;54.242;12.442;2023-04-25T12:36:37;12.59;48.15
69503;SHT31;56704;54.242;12.442;2023-04-25T12:39:03;12.15;47.95
69503;SHT31;56704;54.242;12.442;2023-04-25T12:41:31;12.28;49.04
69503;SHT31;56704;54.242;12.442;2023-04-25T12:43:58;11.94;48.57
69503;SHT31;56704;54.242;12.442;2023-04-25T12:46:25;11.91;50.27
69503;SHT31;56704;54.242;12.442;2023-04-25T12:48:51;12.28;48.99
69503;SHT31;56704;54.242;12.442;2023-04-25T12:51:18;12.28;47.73
69503;SHT31;56704;54.242;12.442;2023-04-25T12:53:44;12.69;48.06
69503;SHT31;56704;54.242;12.442;2023-04-25T12:56:11;12.76;47.56
69503;SHT31;56704;54.242;12.442;2023-04-25T12:58:39;13.24;46.75
69503;SHT31;56704;54.242;12.442;2023-04-25T13:01:05;13.69;44.22
69503;SHT31;56704;54.242;12.442;2023-04-25T13:03:32;14.48;42.35
69503;SHT31;56704;54.242;12.442;2023-04-25T13:06:00;14.98;41.68
69503;SHT31;56704;54.242;12.442;2023-04-25T13:08:26;14.77;42.03
69503;SHT31;56704;54.242;12.442;2023-04-25T13:10:53;13.59;41.81
69503;SHT31;56704;54.242;12.442;2023-04-25T13:13:19;13.32;44.78
69503;SHT31;56704;54.242;12.442;2023-04-25T13:15:47;13.85;45.05
69503;SHT31;56704;54.242;12.442;2023-04-25T13:18:14;13.72;44.02
69503;SHT31;56704;54.242;12.442;2023-04-25T13:20:41;13.07;44.75
69503;SHT31;56704;54.242;12.442;2023-04-25T13:23:07;12.32;47.21
69503;SHT31;56704;54.242;12.442;2023-04-25T13:25:34;12.19;49.46
69503;SHT31;56704;54.242;12.442;2023-04-25T13:28:01;12.32;49.72
69503;SHT31;56704;54.242;12.442;2023-04-25T13:30:28;12.19;49.71
69503;SHT31;56704;54.242;12.442;2023-04-25T13:32:56;11.91;51.36
69503;SHT31;56704;54.242;12.442;2023-04-25T13:35:29;12.01;50.46
69503;SHT31;56704;54.242;12.442;2023-04-25T13:37:55;11.59;51.26
69503;SHT31;56704;54.242;12.442;2023-04-25T13:40:22;11.23;51.96
69503;SHT31;56704;54.242;12.442;2023-04-25T13:42:49;11.33;53.27
69503;SHT31;56704;54.242;12.442;2023-04-25T13:45:16;11.33;52.96
69503;SHT31;56704;54.242;12.442;2023-04-25T13:47:42;11.18;53.56
69503;SHT31;56704;54.242;12.442;2023-04-25T13:50:11;11.06;54.83
69503;SHT31;56704;54.242;12.442;2023-04-25T13:52:38;10.86;55.36
69503;SHT31;56704;54.242;12.442;2023-04-25T13:55:06;10.75;53.93
69503;SHT31;56704;54.242;12.442;2023-04-25T13:57:34;10.48;53.06
69503;SHT31;56704;54.242;12.442;2023-04-25T14:00:00;9.85;57.29
69503;SHT31;56704;54.242;12.442;2023-04-25T14:02:30;10.01;57.57
69503;SHT31;56704;54.242;12.442;2023-04-25T14:04:57;9.90;57.16
69503;SHT31;56704;54.242;12.442;2023-04-25T14:07:26;9.73;58.76
69503;SHT31;56704;54.242;12.442;2023-04-25T14:09:52;9.55;56.87
69503;SHT31;56704;54.242;12.442;2023-04-25T14:12:19;9.99;55.20
69503;SHT31;56704;54.242;12.442;2023-04-25T14:14:46;10.21;54.03
69503;SHT31;56704;54.242;12.442;2023-04-25T14:17:12;10.61;55.44
69503;SHT31;56704;54.242;12.442;2023-04-25T14:19:39;12.15;50.33
69503;SHT31;56704;54.242;12.442;2023-04-25T14:22:08;12.46;48.17
69503;SHT31;56704;54.242;12.442;2023-04-25T14:24:36;11.59;50.71
69503;SHT31;56704;54.242;12.442;2023-04-25T14:27:03;11.09;53.05
69503;SHT31;56704;54.242;12.442;2023-04-25T14:29:30;10.64;53.42
69503;SHT31;56704;54.242;12.442;2023-04-25T14:31:56;10.27;54.42
69503;SHT31;56704;54.242;12.442;2023-04-25T14:34:24;10.11;55.08
69503;SHT31;56704;54.242;12.442;2023-04-25T14:36:51;10.11;56.37
69503;SHT31;56704;54.242;12.442;2023-04-25T14:39:18;10.17;55.72
69503;SHT31;56704;54.242;12.442;2023-04-25T14:41:46;10.51;54.91
69503;SHT31;56704;54.242;12.442;2023-04-25T14:44:12;10.64;54.88
69503;SHT31;56704;54.242;12.442;2023-04-25T14:46:39;10.71;55.26
69503;SHT31;56704;54.242;12.442;2023-04-25T14:49:05;11.13;56.06
69503;SHT31;56704;54.242;12.442;2023-04-25T14:51:32;11.19;55.36
69503;SHT31;56704;54.242;12.442;2023-04-25T14:53:59;11.16;55.97
69503;SHT31;56704;54.242;12.442;2023-04-25T14:56:25;11.69;55.97
69503;SHT31;56704;54.242;12.442;2023-04-25T14:58:53;11.85;54.51
69503;SHT31;56704;54.242;12.442;2023-04-25T15:01:20;11.44;53.39
69503;SHT31;56704;54.242;12.442;2023-04-25T15:03:47;10.88;54.21
69503;SHT31;56704;54.242;12.442;2023-04-25T15:06:14;10.86;55.38
69503;SHT31;56704;54.242;12.442;2023-04-25T15:08:40;10.48;56.67
69503;SHT31;56704;54.242;12.442;2023-04-25T15:11:07;10.68;55.95
69503;SHT31;56704;54.242;12.442;2023-04-25T15:13:33;10.98;57.72
69503;SHT31;56704;54.242;12.442;2023-04-25T15:16:02;10.79;56.93
69503;SHT31;56704;54.242;12.442;2023-04-25T15:18:28;10.60;58.68
69503;SHT31;56704;54.242;12.442;2023-04-25T15:20:55;10.33;58.94
69503;SHT31;56704;54.242;12.442;2023-04-25T15:23:22;10.06;59.80
69503;SHT31;56704;54.242;12.442;2023-04-25T15:25:50;9.82;59.15
69503;SHT31;56704;54.242;12.442;2023-04-25T15:28:17;9.72;60.38
69503;SHT31;56704;54.242;12.442;2023-04-25T15:30:44;9.82;60.17